Time;durP1;ratioP1;P1;durP2;ratioP2;P2;SDS_P1;SDS_P2;PMS_P1;PMS_P2;Temp;Humidity;BMP_temperature;BMP_pressure;BME280_temperature;BME280_humidity;BME280_pressure;Samples;Min_cycle;Max_cycle;Signal;HPM_P1;HPM_P2
2023/02/23 00:01:16;;;;;;;50.47;28.92;;;11.50;99.90;;;;;;4180130;28;20037;-77
2023/02/23 00:03:17;;;;;;;53.38;29.17;;;11.50;99.90;;;;;;4186893;28;20044;-79
2023/02/23 00:05:18;;;;;;;50.08;27.35;;;11.50;99.90;;;;;;4183365;28;21214;-76
2023/02/23 00:07:19;;;;;;;50.15;28.08;;;11.50;99.90;;;;;;4183608;28;20376;-77
2023/02/23 00:09:26;;;;;;;56.13;29.58;;;11.60;99.90;;;;;;4184972;28;20029;-77
2023/02/23 00:11:27;;;;;;;53.42;29.05;;;11.50;99.90;;;;;;4184270;28;20101;-77
2023/02/23 00:13:28;;;;;;;53.75;29.90;;;11.50;99.90;;;;;;4182878;28;20124;-76
2023/02/23 00:15:29;;;;;;;52.22;29.85;;;11.50;99.90;;;;;;4188225;28;20656;-77
2023/02/23 00:17:30;;;;;;;57.10;32.25;;;11.50;99.90;;;;;;4185509;28;20131;-77
2023/02/23 00:19:32;;;;;;;52.47;31.30;;;11.50;99.90;;;;;;4186332;28;20115;-77
2023/02/23 00:21:36;;;;;;;52.50;29.93;;;11.50;99.90;;;;;;4175590;28;20041;-78
2023/02/23 00:23:37;;;;;;;52.58;29.23;;;11.50;99.90;;;;;;4184074;28;20085;-77
2023/02/23 00:25:38;;;;;;;52.63;29.60;;;11.50;99.90;;;;;;4179302;28;20060;-77
2023/02/23 00:27:43;;;;;;;51.83;30.55;;;11.50;99.90;;;;;;4188016;28;20071;-77
2023/02/23 00:29:48;;;;;;;54.20;29.92;;;11.40;99.90;;;;;;4180755;28;20140;-78
2023/02/23 00:31:50;;;;;;;51.97;29.52;;;11.50;99.90;;;;;;4182710;28;20037;-78
2023/02/23 00:33:53;;;;;;;54.55;28.65;;;11.50;99.90;;;;;;4185493;28;20078;-78
2023/02/23 00:35:54;;;;;;;50.72;30.02;;;11.50;99.90;;;;;;4191678;28;20040;-73
2023/02/23 00:37:54;;;;;;;47.50;27.77;;;11.40;99.90;;;;;;4179509;28;20033;-78
2023/02/23 00:39:55;;;;;;;52.70;28.75;;;11.50;99.90;;;;;;4181454;28;20076;-77
2023/02/23 00:42:02;;;;;;;53.63;30.63;;;11.40;99.90;;;;;;4185102;28;20055;-77
2023/02/23 00:44:02;;;;;;;50.80;28.52;;;11.40;99.90;;;;;;4179478;28;20028;-77
2023/02/23 00:46:04;;;;;;;50.17;29.00;;;11.40;99.90;;;;;;4184789;28;20110;-78
2023/02/23 00:48:09;;;;;;;50.20;28.17;;;11.50;99.90;;;;;;4182429;28;20037;-78
2023/02/23 00:50:15;;;;;;;50.65;28.25;;;11.40;99.90;;;;;;4186411;28;20045;-77
2023/02/23 00:52:15;;;;;;;50.75;29.48;;;11.40;99.90;;;;;;4186957;28;20033;-77
2023/02/23 00:54:17;;;;;;;51.05;29.23;;;11.40;99.90;;;;;;4183147;28;20032;-77
2023/02/23 00:56:17;;;;;;;49.38;28.52;;;11.40;99.90;;;;;;4188002;28;20061;-78
2023/02/23 00:58:18;;;;;;;50.95;29.63;;;11.40;99.90;;;;;;4188760;28;20029;-78
2023/02/23 01:00:19;;;;;;;52.00;29.92;;;11.40;99.90;;;;;;4182374;28;20041;-77
2023/02/23 01:02:20;;;;;;;56.72;32.25;;;11.40;99.90;;;;;;4181829;28;20065;-77
2023/02/23 01:04:21;;;;;;;53.45;29.88;;;11.40;99.90;;;;;;4185062;28;20028;-77
2023/02/23 01:06:22;;;;;;;53.73;29.50;;;11.40;99.90;;;;;;4182234;28;20120;-78
2023/02/23 01:08:23;;;;;;;55.55;30.40;;;11.40;99.90;;;;;;4185338;28;20768;-78
2023/02/23 01:10:23;;;;;;;51.20;29.42;;;11.40;99.90;;;;;;4183561;28;20050;-74
2023/02/23 01:12:24;;;;;;;52.53;28.98;;;11.40;99.90;;;;;;4184790;28;20039;-76
2023/02/23 01:14:25;;;;;;;51.92;30.00;;;11.40;99.90;;;;;;4179608;28;20507;-77
2023/02/23 01:16:28;;;;;;;52.75;28.52;;;11.40;99.90;;;;;;4181412;28;20390;-77
2023/02/23 01:18:29;;;;;;;52.97;29.48;;;11.40;99.90;;;;;;4184498;28;20151;-78
2023/02/23 01:20:29;;;;;;;56.97;31.90;;;11.40;99.90;;;;;;4181548;28;20290;-78
2023/02/23 01:22:30;;;;;;;50.65;29.92;;;11.40;99.90;;;;;;4182057;28;20442;-78
2023/02/23 01:24:31;;;;;;;54.33;30.67;;;11.40;99.90;;;;;;4185387;28;20036;-78
2023/02/23 01:26:34;;;;;;;52.17;30.35;;;11.40;99.90;;;;;;4185848;28;20071;-77
2023/02/23 01:28:36;;;;;;;53.83;29.67;;;11.40;99.90;;;;;;4180877;28;20086;-77
2023/02/23 01:30:38;;;;;;;56.00;30.25;;;11.40;99.90;;;;;;4179403;28;20045;-77
2023/02/23 01:32:39;;;;;;;54.38;31.15;;;11.30;99.90;;;;;;4186502;28;20043;-77
2023/02/23 01:34:39;;;;;;;53.28;29.45;;;11.30;99.90;;;;;;4184239;28;20029;-77
2023/02/23 01:36:42;;;;;;;52.67;29.92;;;11.40;99.90;;;;;;4185782;28;20475;-77
2023/02/23 01:38:43;;;;;;;;;;;11.40;99.90;;;;;;4180589;28;20479;-78
2023/02/23 01:40:46;;;;;;;51.67;27.98;;;11.30;99.90;;;;;;4187446;28;19916;-77
2023/02/23 01:42:46;;;;;;;50.72;29.45;;;11.40;99.90;;;;;;4187324;28;20041;-77
2023/02/23 01:44:47;;;;;;;50.65;29.60;;;11.30;99.90;;;;;;4189260;28;20047;-78
2023/02/23 01:46:49;;;;;;;51.67;29.15;;;11.40;99.90;;;;;;4187958;28;20028;-78
2023/02/23 01:48:55;;;;;;;47.05;28.15;;;11.40;99.90;;;;;;4186318;28;20115;-77
2023/02/23 01:51:09;;;;;;;47.05;28.77;;;11.40;99.90;;;;;;4181447;28;20094;-78
2023/02/23 01:53:10;;;;;;;57.53;32.88;;;11.30;99.90;;;;;;4177733;28;20065;-78
2023/02/23 01:55:12;;;;;;;49.92;27.58;;;11.40;99.90;;;;;;4187487;28;20044;-77
2023/02/23 01:57:13;;;;;;;49.50;29.15;;;11.30;99.90;;;;;;4182315;28;20391;-77
2023/02/23 01:59:16;;;;;;;52.05;29.73;;;11.30;99.90;;;;;;4186247;28;20036;-78
2023/02/23 02:01:17;;;;;;;;;;;11.30;99.90;;;;;;4181156;28;20452;-78
2023/02/23 02:03:43;;;;;;;49.63;27.80;;;11.30;99.90;;;;;;4186594;28;19925;-77
2023/02/23 02:05:47;;;;;;;46.33;28.08;;;11.30;99.90;;;;;;4181891;28;20091;-78
2023/02/23 02:07:57;;;;;;;50.63;28.55;;;11.30;99.90;;;;;;4177558;28;20040;-78
2023/02/23 02:12:11;;;;;;;55.65;30.73;;;11.20;99.90;;;;;;4186002;28;20041;-78
2023/02/23 02:14:21;;;;;;;50.92;29.92;;;11.30;99.90;;;;;;4187001;28;20029;-77
2023/02/23 02:16:33;;;;;;;52.95;28.05;;;11.20;99.90;;;;;;4177904;28;20444;-78
2023/02/23 02:18:56;;;;;;;46.05;27.25;;;11.20;99.90;;;;;;4185240;28;20029;-78
2023/02/23 02:21:26;;;;;;;46.88;27.77;;;11.20;99.90;;;;;;4179168;28;20066;-78
2023/02/23 02:23:45;;;;;;;52.20;29.90;;;11.20;99.90;;;;;;4178192;28;20120;-77
2023/02/23 02:26:23;;;;;;;49.55;28.80;;;11.20;99.90;;;;;;4175107;28;20054;-77
2023/02/23 02:28:45;;;;;;;48.45;27.35;;;11.20;99.90;;;;;;4180656;28;20059;-78
2023/02/23 02:31:08;;;;;;;49.70;28.20;;;11.20;99.90;;;;;;4174744;28;20074;-78
2023/02/23 02:33:31;;;;;;;47.55;27.45;;;11.20;99.90;;;;;;4183279;28;20472;-78
2023/02/23 02:35:46;;;;;;;45.67;27.05;;;11.20;99.90;;;;;;4187739;28;20032;-78
2023/02/23 02:37:47;;;;;;;44.38;26.17;;;11.20;99.90;;;;;;4183489;28;20131;-78
2023/02/23 02:40:27;;;;;;;54.90;29.48;;;11.20;99.90;;;;;;4186785;28;20028;-78
2023/02/23 02:42:34;;;;;;;50.22;28.52;;;11.20;99.90;;;;;;4149216;28;20476;-79
2023/02/23 02:44:45;;;;;;;49.28;28.00;;;11.20;99.90;;;;;;4184653;28;20040;-80
2023/02/23 02:46:52;;;;;;;48.13;28.80;;;11.20;99.90;;;;;;4177974;28;20033;-80
2023/02/23 02:49:08;;;;;;;48.28;28.75;;;11.20;99.90;;;;;;4189414;28;20032;-79
2023/02/23 02:51:41;;;;;;;44.10;26.05;;;11.20;99.90;;;;;;4172481;28;20068;-79
2023/02/23 02:54:06;;;;;;;52.97;28.00;;;11.20;99.90;;;;;;4175206;28;20426;-80
2023/02/23 02:56:08;;;;;;;48.13;29.35;;;11.20;99.90;;;;;;4182143;28;20404;-81
2023/02/23 02:58:11;;;;;;;47.78;28.60;;;11.20;99.90;;;;;;4187142;28;20400;-80
2023/02/23 04:18:33;;;;;;;50.90;29.85;;;11.00;99.90;;;;;;4184596;28;20032;-81
2023/02/23 04:20:34;;;;;;;47.72;28.42;;;10.90;99.90;;;;;;4179378;28;20458;-81
2023/02/23 04:22:34;;;;;;;42.45;25.25;;;10.90;99.90;;;;;;4182013;28;20033;-82
2023/02/23 04:24:35;;;;;;;44.97;26.77;;;10.90;99.90;;;;;;4176918;28;20033;-81
2023/02/23 04:26:36;;;;;;;51.22;29.00;;;10.90;99.90;;;;;;4182355;28;20044;-81
2023/02/23 04:28:36;;;;;;;45.35;26.40;;;10.90;99.90;;;;;;4184428;28;20535;-81
2023/02/23 04:30:37;;;;;;;48.65;28.02;;;10.90;99.90;;;;;;4181033;28;20037;-81
2023/02/23 04:32:37;;;;;;;45.88;28.08;;;10.90;99.90;;;;;;4181058;28;20040;-82
2023/02/23 04:34:38;;;;;;;41.40;25.40;;;10.90;99.90;;;;;;4178238;28;20444;-81
2023/02/23 04:36:39;;;;;;;45.55;27.75;;;10.90;99.90;;;;;;4181661;28;20071;-82
2023/02/23 04:38:40;;;;;;;40.97;25.48;;;10.90;99.90;;;;;;4189380;28;20361;-78
2023/02/23 04:40:40;;;;;;;44.13;27.17;;;10.90;99.90;;;;;;4179811;28;20044;-81
2023/02/23 04:42:41;;;;;;;47.72;27.25;;;10.90;99.90;;;;;;4189557;28;20043;-80
2023/02/23 04:44:42;;;;;;;44.38;27.13;;;10.90;99.90;;;;;;4180195;28;20029;-81
2023/02/23 04:46:42;;;;;;;50.50;28.70;;;10.90;99.90;;;;;;4186500;28;20036;-81
2023/02/23 04:48:43;;;;;;;43.78;27.15;;;10.90;99.90;;;;;;4184347;28;20029;-81
2023/02/23 04:50:44;;;;;;;42.90;26.98;;;10.90;99.90;;;;;;4187496;28;20044;-81
2023/02/23 04:52:44;;;;;;;47.08;26.50;;;11.00;99.90;;;;;;4184576;28;20033;-81
2023/02/23 04:54:48;;;;;;;41.55;26.13;;;11.00;99.90;;;;;;4178778;28;20025;-82
2023/02/23 04:56:49;;;;;;;46.47;26.75;;;11.00;99.90;;;;;;4180190;28;20450;-81
2023/02/23 04:58:49;;;;;;;44.10;25.98;;;11.00;99.90;;;;;;4178625;28;20040;-82
2023/02/23 05:00:50;;;;;;;43.42;26.75;;;11.00;99.90;;;;;;4176808;28;20381;-82
2023/02/23 05:02:51;;;;;;;49.03;28.85;;;11.00;99.90;;;;;;4175368;28;20505;-82
2023/02/23 05:04:51;;;;;;;50.45;27.92;;;11.00;99.90;;;;;;4178179;28;20403;-82
2023/02/23 05:06:52;;;;;;;46.65;27.30;;;11.00;99.90;;;;;;4181934;28;20040;-82
2023/02/23 05:08:53;;;;;;;44.80;26.50;;;11.00;99.90;;;;;;4189364;28;20059;-82
2023/02/23 05:10:53;;;;;;;50.90;29.27;;;11.00;99.90;;;;;;4183682;28;20064;-83
2023/02/23 05:12:54;;;;;;;48.97;29.40;;;11.00;99.90;;;;;;4191254;28;20028;-82
2023/02/23 05:14:55;;;;;;;47.88;28.15;;;11.00;99.90;;;;;;4174985;28;20422;-81
2023/02/23 05:16:55;;;;;;;44.30;26.50;;;11.00;99.90;;;;;;4174762;28;20036;-82
2023/02/23 05:18:56;;;;;;;47.22;28.73;;;11.00;99.90;;;;;;4185829;28;20437;-83
2023/02/23 05:21:05;;;;;;;51.55;29.45;;;11.00;99.90;;;;;;4180008;28;20041;-81
2023/02/23 05:23:06;;;;;;;48.30;28.10;;;11.00;99.90;;;;;;4181252;28;20782;-82
2023/02/23 05:25:07;;;;;;;49.88;29.05;;;11.00;99.90;;;;;;4174290;28;20041;-81
2023/02/23 05:27:09;;;;;;;44.03;27.45;;;11.00;99.90;;;;;;4182546;28;20094;-82
2023/02/23 05:29:10;;;;;;;46.53;28.07;;;11.00;99.90;;;;;;4184150;28;20024;-82
2023/02/23 05:31:11;;;;;;;49.65;29.05;;;11.00;99.90;;;;;;4175468;28;20069;-82
2023/02/23 05:33:13;;;;;;;49.58;28.20;;;10.90;99.90;;;;;;4185247;28;20690;-83
2023/02/23 05:35:13;;;;;;;54.15;31.80;;;11.00;99.90;;;;;;4179321;28;20072;-82
2023/02/23 05:37:14;;;;;;;50.88;30.38;;;10.90;99.90;;;;;;4183829;28;20717;-82
2023/02/23 05:39:14;;;;;;;51.28;30.27;;;10.90;99.90;;;;;;4183450;28;20029;-82
2023/02/23 05:41:19;;;;;;;54.55;31.90;;;10.90;99.90;;;;;;4183299;28;20169;-83
2023/02/23 05:43:20;;;;;;;61.05;34.00;;;10.80;99.90;;;;;;4177567;28;20064;-82
2023/02/23 05:45:20;;;;;;;65.75;36.90;;;10.80;99.90;;;;;;4174145;28;20551;-83
2023/02/23 05:47:21;;;;;;;67.25;37.05;;;10.70;99.90;;;;;;4184191;28;20394;-81
2023/02/23 05:49:22;;;;;;;69.72;36.45;;;10.70;99.90;;;;;;4183374;28;20525;-82
2023/02/23 05:51:23;;;;;;;69.15;36.30;;;10.60;99.90;;;;;;4183062;28;20483;-82
2023/02/23 05:53:23;;;;;;;63.15;34.80;;;10.60;99.90;;;;;;4182084;28;20044;-83
2023/02/23 05:55:24;;;;;;;69.28;37.42;;;10.60;99.90;;;;;;4182118;28;20048;-82
2023/02/23 05:57:26;;;;;;;74.32;39.90;;;10.50;99.90;;;;;;4177729;28;20071;-82
2023/02/23 05:59:26;;;;;;;68.75;37.50;;;10.50;99.90;;;;;;4178770;28;20029;-83
2023/02/23 06:01:27;;;;;;;67.80;37.38;;;10.50;99.90;;;;;;4178100;28;20048;-83
2023/02/23 06:03:28;;;;;;;72.55;38.58;;;10.50;99.90;;;;;;4177576;28;20042;-82
2023/02/23 06:05:28;;;;;;;65.45;36.75;;;10.50;99.90;;;;;;4178056;28;20735;-83
2023/02/23 06:07:29;;;;;;;68.13;37.55;;;10.40;99.90;;;;;;4174502;28;20044;-82
2023/02/23 06:09:30;;;;;;;75.75;40.45;;;10.40;99.90;;;;;;4174872;28;20029;-82
2023/02/23 06:11:31;;;;;;;74.43;40.58;;;10.40;99.90;;;;;;4168879;28;20094;-83
2023/02/23 06:13:31;;;;;;;68.95;37.55;;;10.40;99.90;;;;;;4171456;28;20041;-83
2023/02/23 06:15:32;;;;;;;70.13;37.50;;;10.30;99.90;;;;;;4170537;28;20041;-82
2023/02/23 06:17:32;;;;;;;73.35;36.92;;;10.30;99.90;;;;;;4167520;28;20075;-78
2023/02/23 06:19:33;;;;;;;67.82;35.47;;;10.40;99.90;;;;;;4164122;28;20041;-77
2023/02/23 06:21:34;;;;;;;70.82;36.80;;;10.30;99.90;;;;;;4165711;28;20084;-77
2023/02/23 06:23:35;;;;;;;65.28;35.40;;;10.40;99.90;;;;;;4167383;28;20135;-78
2023/02/23 06:25:36;;;;;;;69.22;35.90;;;10.40;99.90;;;;;;4167537;28;20053;-69
2023/02/23 06:27:36;;;;;;;69.35;35.90;;;10.40;99.90;;;;;;4168715;28;20701;-69
2023/02/23 06:29:37;;;;;;;68.88;36.97;;;10.40;99.90;;;;;;4163548;28;20594;-81
2023/02/23 06:31:37;;;;;;;71.72;37.67;;;10.40;99.90;;;;;;4165154;28;20471;-78
2023/02/23 06:33:38;;;;;;;71.47;39.13;;;10.40;99.90;;;;;;4169857;28;20037;-79
2023/02/23 06:35:39;;;;;;;70.05;39.70;;;10.40;99.90;;;;;;4168091;28;20120;-78
2023/02/23 06:37:39;;;;;;;62.17;35.00;;;10.40;99.90;;;;;;4167381;28;20543;-79
2023/02/23 06:39:40;;;;;;;71.55;38.40;;;10.40;99.90;;;;;;4166920;28;20564;-79
2023/02/23 06:41:40;;;;;;;73.00;39.10;;;10.30;99.90;;;;;;4166121;28;20038;-75
2023/02/23 06:43:41;;;;;;;82.03;40.92;;;10.30;99.90;;;;;;4169078;28;21171;-69
2023/02/23 06:45:41;;;;;;;72.28;38.63;;;10.30;99.90;;;;;;4167340;28;20431;-78
2023/02/23 06:47:42;;;;;;;73.38;39.65;;;10.30;99.90;;;;;;4168641;28;20091;-79
2023/02/23 06:49:43;;;;;;;69.80;37.80;;;10.30;99.90;;;;;;4165169;28;20452;-79
2023/02/23 06:51:43;;;;;;;73.18;39.05;;;10.30;99.90;;;;;;4167047;28;20036;-78
2023/02/23 06:53:44;;;;;;;62.90;35.92;;;10.30;99.90;;;;;;4169163;28;20040;-79
2023/02/23 06:55:45;;;;;;;83.97;42.03;;;10.30;99.90;;;;;;4165424;28;20037;-79
2023/02/23 06:57:48;;;;;;;77.53;41.45;;;10.20;99.90;;;;;;4168241;28;20040;-79
2023/02/23 06:59:49;;;;;;;74.22;40.45;;;10.20;99.90;;;;;;4167042;28;20812;-80
2023/02/23 07:01:49;;;;;;;74.25;39.30;;;10.20;99.90;;;;;;4166932;28;20038;-79
2023/02/23 07:03:50;;;;;;;82.90;43.15;;;10.20;99.90;;;;;;4169853;28;20036;-80
2023/02/23 07:05:51;;;;;;;77.50;40.70;;;10.10;99.90;;;;;;4166542;28;20048;-79
2023/02/23 07:07:52;;;;;;;68.28;37.30;;;10.10;99.90;;;;;;4168419;28;20426;-79
2023/02/23 07:09:52;;;;;;;73.90;39.65;;;10.10;99.90;;;;;;4167307;28;20046;-79
2023/02/23 07:11:53;;;;;;;75.72;41.95;;;10.10;99.90;;;;;;4169089;28;20038;-79
2023/02/23 07:13:57;;;;;;;76.63;39.83;;;10.00;99.90;;;;;;4167474;28;20380;-80
2023/02/23 07:15:57;;;;;;;72.88;38.97;;;10.00;99.90;;;;;;4165304;28;20025;-80
2023/02/23 07:17:58;;;;;;;71.28;38.33;;;10.00;99.90;;;;;;4169577;28;20112;-80
2023/02/23 07:19:59;;;;;;;68.40;37.92;;;10.00;99.90;;;;;;4167171;28;20037;-80
2023/02/23 07:21:59;;;;;;;70.85;37.28;;;10.00;99.90;;;;;;4167892;28;20131;-80
2023/02/23 07:24:03;;;;;;;74.07;40.20;;;10.00;99.90;;;;;;4170429;28;22561;-80
2023/02/23 07:26:04;;;;;;;71.57;39.42;;;10.00;99.90;;;;;;4166812;28;20511;-79
2023/02/23 07:28:05;;;;;;;73.15;38.85;;;10.00;99.90;;;;;;4166469;28;20075;-80
2023/02/23 07:30:06;;;;;;;71.00;38.17;;;10.00;99.90;;;;;;4165893;28;20053;-79
2023/02/23 07:32:06;;;;;;;71.03;38.08;;;10.00;99.90;;;;;;4165049;28;20048;-80
2023/02/23 07:34:08;;;;;;;70.95;38.20;;;10.00;99.90;;;;;;4169951;28;21197;-80
2023/02/23 07:36:09;;;;;;;75.93;40.03;;;10.00;99.90;;;;;;4167714;28;20045;-80
2023/02/23 07:38:11;;;;;;;80.13;41.25;;;10.00;99.90;;;;;;4169009;28;20041;-79
2023/02/23 07:40:12;;;;;;;84.50;42.50;;;10.00;99.90;;;;;;4168278;28;20048;-78
2023/02/23 07:42:13;;;;;;;76.93;40.30;;;10.00;99.90;;;;;;4163968;28;20037;-79
2023/02/23 07:44:13;;;;;;;67.70;37.08;;;10.00;99.90;;;;;;4167326;28;20491;-80
2023/02/23 07:46:15;;;;;;;71.10;38.53;;;9.90;99.90;;;;;;4166564;28;20150;-79
2023/02/23 07:48:16;;;;;;;69.53;37.50;;;10.00;99.90;;;;;;4167039;28;20429;-79
2023/02/23 07:50:16;;;;;;;69.85;36.88;;;10.00;99.90;;;;;;4167467;28;20044;-75
2023/02/23 07:52:17;;;;;;;68.15;36.38;;;10.00;99.90;;;;;;4167004;28;20036;-79
2023/02/23 07:54:18;;;;;;;75.40;39.95;;;10.00;99.90;;;;;;4149027;28;20044;-79
2023/02/23 07:56:18;;;;;;;76.95;39.10;;;10.00;99.90;;;;;;4164224;28;20037;-79
2023/02/23 07:58:19;;;;;;;69.25;36.75;;;10.00;99.90;;;;;;4168505;28;20040;-79
2023/02/23 08:00:20;;;;;;;71.28;37.85;;;10.00;99.90;;;;;;4167473;28;20035;-79
2023/02/23 08:02:20;;;;;;;64.05;35.28;;;10.00;99.90;;;;;;4170900;28;20110;-80
2023/02/23 08:04:21;;;;;;;71.38;37.17;;;10.00;99.90;;;;;;4171288;28;20522;-80
2023/02/23 08:06:22;;;;;;;66.88;38.15;;;10.00;99.90;;;;;;4170091;28;20106;-79
2023/02/23 08:08:23;;;;;;;73.75;39.45;;;10.00;99.90;;;;;;4169246;28;20037;-79
2023/02/23 08:10:24;;;;;;;70.38;38.83;;;10.00;99.90;;;;;;4171398;28;20045;-79
2023/02/23 08:12:25;;;;;;;69.43;39.03;;;10.00;99.90;;;;;;4170257;28;20035;-79
2023/02/23 08:14:26;;;;;;;73.18;39.15;;;10.00;99.90;;;;;;4169132;28;20123;-80
2023/02/23 08:16:28;;;;;;;79.82;43.08;;;10.00;99.90;;;;;;4170395;28;20032;-79
2023/02/23 08:18:28;;;;;;;89.30;43.65;;;10.00;99.90;;;;;;4171961;28;20048;-79
2023/02/23 08:20:29;;;;;;;71.88;38.67;;;10.00;99.90;;;;;;4168458;28;20053;-79
2023/02/23 08:22:30;;;;;;;75.95;40.95;;;10.00;99.90;;;;;;4171253;28;20041;-79
2023/02/23 08:24:30;;;;;;;81.05;39.45;;;10.00;99.90;;;;;;4171958;28;20450;-80
2023/02/23 08:26:34;;;;;;;72.65;39.17;;;10.00;99.90;;;;;;4169988;28;20079;-79
2023/02/23 08:28:34;;;;;;;81.38;42.40;;;10.00;99.90;;;;;;4168864;28;20037;-78
2023/02/23 08:30:35;;;;;;;74.40;37.10;;;10.00;99.90;;;;;;4167400;28;20050;-79
2023/02/23 08:32:35;;;;;;;63.33;35.20;;;9.90;99.90;;;;;;4170612;28;20049;-78
2023/02/23 08:34:41;;;;;;;62.35;33.40;;;9.90;99.90;;;;;;4169026;28;20038;-78
2023/02/23 08:36:44;;;;;;;58.97;32.13;;;9.90;99.90;;;;;;4167579;28;20039;-78
2023/02/23 08:38:44;;;;;;;54.15;28.52;;;9.90;99.90;;;;;;4170368;28;20770;-78
2023/02/23 08:40:45;;;;;;;56.35;30.67;;;9.90;99.90;;;;;;4166971;28;20045;-78
2023/02/23 08:42:48;;;;;;;61.53;32.97;;;9.90;99.90;;;;;;4168852;28;20646;-78
2023/02/23 08:44:48;;;;;;;55.60;30.77;;;9.90;99.90;;;;;;4170480;28;20029;-79
2023/02/23 08:46:49;;;;;;;54.40;29.38;;;9.90;99.90;;;;;;4168694;28;20026;-79
2023/02/23 08:48:49;;;;;;;55.17;28.65;;;10.00;99.90;;;;;;4171827;28;20039;-78
2023/02/23 08:50:54;;;;;;;59.83;32.38;;;10.00;99.90;;;;;;4169452;28;20387;-79
2023/02/23 08:52:54;;;;;;;67.88;35.45;;;10.00;99.90;;;;;;4173447;28;20082;-79
2023/02/23 08:54:56;;;;;;;61.30;32.10;;;9.90;99.90;;;;;;4164829;28;20044;-79
2023/02/23 08:56:57;;;;;;;58.83;32.40;;;10.00;99.90;;;;;;4165827;28;20044;-79
2023/02/23 08:58:57;;;;;;;53.30;29.25;;;9.90;99.90;;;;;;4171496;28;20037;-79
2023/02/23 09:00:58;;;;;;;53.25;29.15;;;10.00;99.90;;;;;;4168954;28;20025;-79
2023/02/23 09:02:59;;;;;;;57.13;30.70;;;10.00;99.90;;;;;;4170796;28;20025;-79
2023/02/23 09:05:00;;;;;;;57.75;32.30;;;10.00;99.90;;;;;;4168100;28;20040;-78
2023/02/23 09:07:01;;;;;;;52.97;29.58;;;10.00;99.90;;;;;;4166664;28;20045;-79
2023/02/23 09:09:02;;;;;;;61.53;32.67;;;10.00;99.90;;;;;;4171586;28;20041;-79
2023/02/23 09:11:03;;;;;;;51.72;30.10;;;10.10;99.90;;;;;;4166192;28;20049;-79
2023/02/23 09:13:03;;;;;;;56.58;31.08;;;10.10;99.90;;;;;;4169832;28;20106;-78
2023/02/23 09:15:04;;;;;;;54.10;29.98;;;10.10;99.90;;;;;;4167047;28;20052;-78
2023/02/23 09:17:05;;;;;;;51.72;29.08;;;10.00;99.90;;;;;;4166905;28;20029;-78
2023/02/23 09:19:05;;;;;;;53.35;28.95;;;10.00;99.90;;;;;;4169569;28;20064;-78
2023/02/23 09:21:13;;;;;;;49.13;27.05;;;10.10;99.90;;;;;;4170372;28;20037;-78
2023/02/23 09:23:13;;;;;;;53.25;27.15;;;10.10;99.90;;;;;;4165805;28;20472;-78
2023/02/23 09:25:21;;;;;;;46.65;25.85;;;10.10;99.90;;;;;;4163662;28;20060;-77
2023/02/23 09:27:21;;;;;;;48.15;27.42;;;10.10;99.90;;;;;;4169836;28;20140;-78
2023/02/23 09:29:22;;;;;;;52.03;28.52;;;10.10;99.90;;;;;;4168489;28;20122;-78
2023/02/23 09:31:23;;;;;;;56.85;30.63;;;10.20;99.90;;;;;;4165138;28;20049;-79
2023/02/23 09:33:25;;;;;;;50.13;28.55;;;10.10;99.90;;;;;;4168070;28;20032;-78
2023/02/23 09:35:25;;;;;;;59.63;33.38;;;10.10;99.90;;;;;;4165643;28;20028;-77
2023/02/23 09:37:26;;;;;;;54.42;30.05;;;10.20;99.90;;;;;;4167129;28;20064;-75
2023/02/23 09:39:26;;;;;;;55.10;29.77;;;10.20;99.90;;;;;;4169277;28;20036;-76
2023/02/23 09:42:02;;;;;;;60.65;32.83;;;10.20;99.90;;;;;;4148455;28;20036;-76
2023/02/23 09:44:38;;;;;;;63.53;34.03;;;10.20;99.90;;;;;;4169863;28;20094;-75
2023/02/23 09:46:47;;;;;;;67.57;35.25;;;10.20;99.90;;;;;;4170455;28;20595;-76
2023/02/23 09:48:47;;;;;;;58.83;30.95;;;10.10;99.90;;;;;;4163489;28;20090;-71
2023/02/23 09:50:54;;;;;;;54.25;30.25;;;10.10;99.90;;;;;;4166924;28;20128;-74
2023/02/23 09:53:03;;;;;;;57.95;31.33;;;10.20;99.90;;;;;;4170195;28;20033;-75
2023/02/23 09:55:04;;;;;;;59.47;30.45;;;10.20;99.90;;;;;;4165964;28;20038;-75
2023/02/23 09:57:13;;;;;;;54.15;30.10;;;10.20;99.90;;;;;;4166765;28;20037;-75
2023/02/23 09:59:19;;;;;;;59.45;32.70;;;10.20;99.90;;;;;;4165194;28;20454;-75
2023/02/23 10:01:40;;;;;;;69.28;35.05;;;10.10;99.90;;;;;;4166222;28;20037;-75
2023/02/23 10:04:13;;;;;;;60.03;31.55;;;10.10;99.90;;;;;;4166642;28;20121;-73
2023/02/23 10:06:17;;;;;;;56.70;31.90;;;10.10;99.90;;;;;;4164722;28;20516;-74
2023/02/23 10:08:33;;;;;;;54.08;28.13;;;10.00;99.90;;;;;;4165454;28;20045;-70
2023/02/23 10:10:46;;;;;;;49.10;26.73;;;9.90;99.90;;;;;;4167433;28;20067;-75
2023/02/23 10:13:03;;;;;;;50.38;27.10;;;9.90;99.90;;;;;;4161900;28;20032;-75
2023/02/23 10:15:42;;;;;;;44.47;25.27;;;9.80;99.90;;;;;;4164557;28;20033;-74
2023/02/23 10:17:59;;;;;;;47.20;26.20;;;9.80;99.90;;;;;;4164564;28;20662;-74
2023/02/23 10:20:37;;;;;;;52.90;30.00;;;9.80;99.90;;;;;;4162692;28;20042;-74
2023/02/23 10:22:40;;;;;;;48.45;27.13;;;9.80;99.90;;;;;;4162185;28;20049;-75
2023/02/23 10:24:54;;;;;;;47.75;26.70;;;9.80;99.90;;;;;;4161367;28;21314;-75
2023/02/23 10:27:15;;;;;;;46.90;25.83;;;9.80;99.90;;;;;;4162565;28;20053;-74
2023/02/23 10:29:29;;;;;;;47.22;26.33;;;9.80;99.90;;;;;;4164781;28;20053;-75
2023/02/23 10:31:38;;;;;;;45.92;25.08;;;9.80;99.90;;;;;;4163432;28;20051;-75
2023/02/23 10:33:41;;;;;;;45.70;25.92;;;9.90;99.90;;;;;;4163069;28;20079;-75
2023/02/23 10:35:43;;;;;;;43.22;25.05;;;9.90;99.90;;;;;;4162906;28;20047;-73
2023/02/23 10:37:45;;;;;;;50.22;26.23;;;9.90;99.90;;;;;;4165379;28;20041;-75
2023/02/23 10:39:48;;;;;;;54.25;29.02;;;10.00;99.90;;;;;;4165908;28;20040;-74
2023/02/23 10:41:49;;;;;;;46.88;26.70;;;10.00;99.90;;;;;;4161409;28;20048;-75
2023/02/23 10:43:50;;;;;;;44.30;24.48;;;9.90;99.90;;;;;;4165992;28;20030;-75
2023/02/23 10:45:51;;;;;;;39.13;21.73;;;10.00;99.90;;;;;;4163657;28;20275;-75
2023/02/23 10:48:06;;;;;;;40.00;24.40;;;10.00;99.90;;;;;;4167169;28;20051;-75
2023/02/23 10:50:09;;;;;;;36.55;21.27;;;10.00;99.90;;;;;;4160888;28;20052;-75
2023/02/23 10:52:14;;;;;;;40.35;22.92;;;10.00;99.90;;;;;;4167676;28;20038;-75
2023/02/23 10:54:44;;;;;;;38.88;22.58;;;10.10;99.90;;;;;;4162783;28;20057;-75
2023/02/23 10:56:46;;;;;;;41.25;22.90;;;10.10;99.90;;;;;;4157070;28;20108;-75
2023/02/23 10:58:48;;;;;;;41.72;24.05;;;10.10;99.90;;;;;;4164669;28;20697;-75
2023/02/23 11:01:04;;;;;;;36.47;21.38;;;10.00;99.90;;;;;;4161131;28;20037;-75
2023/02/23 11:03:18;;;;;;;44.20;24.40;;;10.10;99.90;;;;;;4165146;28;20049;-76
2023/02/23 11:05:36;;;;;;;44.05;24.95;;;10.10;99.90;;;;;;4161629;28;20045;-74
2023/02/23 11:07:38;;;;;;;42.65;23.48;;;10.00;99.90;;;;;;4162110;28;20044;-76
2023/02/23 11:09:40;;;;;;;39.97;23.20;;;10.00;99.90;;;;;;4159819;28;20041;-75
2023/02/23 11:12:28;;;;;;;44.67;24.83;;;10.00;99.90;;;;;;4164022;28;20041;-75
2023/02/23 11:14:30;;;;;;;36.05;21.58;;;10.00;99.90;;;;;;4155292;28;20045;-75
2023/02/23 11:16:37;;;;;;;39.83;22.80;;;10.00;99.90;;;;;;4161579;28;20048;-76
2023/02/23 11:18:41;;;;;;;40.25;22.55;;;10.00;99.90;;;;;;4163114;28;20333;-75
2023/02/23 11:20:43;;;;;;;39.47;22.05;;;10.10;99.90;;;;;;4164186;28;20045;-78
2023/02/23 11:22:44;;;;;;;40.17;23.50;;;10.10;99.90;;;;;;4161600;28;20034;-75
2023/02/23 11:24:45;;;;;;;42.92;24.92;;;10.00;99.90;;;;;;4164684;28;20041;-75
2023/02/23 11:26:50;;;;;;;35.20;21.00;;;10.10;99.90;;;;;;4162051;28;20057;-75
2023/02/23 11:28:55;;;;;;;33.55;20.33;;;10.00;99.90;;;;;;4162146;28;20601;-75
2023/02/23 11:31:12;;;;;;;42.03;23.40;;;10.10;99.90;;;;;;4161093;28;20412;-76
2023/02/23 11:33:17;;;;;;;38.55;21.35;;;10.10;99.90;;;;;;4163408;28;20067;-76
2023/02/23 11:35:27;;;;;;;41.15;23.08;;;10.00;99.90;;;;;;4166394;28;20049;-78
2023/02/23 11:37:30;;;;;;;34.10;19.67;;;10.00;99.90;;;;;;4167223;28;20055;-76
2023/02/23 11:39:31;;;;;;;33.78;20.08;;;10.00;99.90;;;;;;4168202;28;20142;-76
2023/02/23 11:41:34;;;;;;;33.83;20.40;;;10.00;99.90;;;;;;4164612;28;20194;-77
2023/02/23 11:43:34;;;;;;;37.38;22.10;;;10.00;99.90;;;;;;4168665;28;20034;-75
2023/02/23 11:45:46;;;;;;;38.10;21.30;;;10.00;99.90;;;;;;4168179;28;20045;-76
2023/02/23 11:47:49;;;;;;;35.10;19.58;;;10.00;99.90;;;;;;4172713;28;20037;-75
2023/02/23 11:49:50;;;;;;;33.25;20.00;;;10.00;99.90;;;;;;4171827;28;21140;-75
2023/02/23 11:51:53;;;;;;;36.15;21.33;;;10.00;99.90;;;;;;4165150;28;20366;-75